Time;durP1;ratioP1;P1;durP2;ratioP2;P2;SDS_P1;SDS_P2;PMS_P1;PMS_P2;Temp;Humidity;BMP_temperature;BMP_pressure;BME280_temperature;BME280_humidity;BME280_pressure;Samples;Min_cycle;Max_cycle;Signal;HPM_P1;HPM_P2
2022/07/02 00:00:36;;;;;;;3.72;2.03;;;12.00;99.90;;;;;;7344888;32;20107;-62
2022/07/02 00:04:43;;;;;;;5.18;2.08;;;11.90;99.90;;;;;;7345974;32;20188;-62
2022/07/02 00:08:46;;;;;;;3.72;2.30;;;11.90;99.90;;;;;;7342329;32;20540;-61
2022/07/02 00:12:48;;;;;;;8.13;2.53;;;12.00;99.90;;;;;;7341180;32;20126;-61
2022/07/02 00:16:52;;;;;;;7.05;2.30;;;11.80;99.90;;;;;;7341732;32;20158;-60
2022/07/02 00:20:54;;;;;;;4.60;2.30;;;11.90;99.90;;;;;;7342137;32;20198;-61
2022/07/02 00:24:56;;;;;;;6.60;2.33;;;11.70;99.90;;;;;;7344081;32;20118;-60
2022/07/02 00:29:08;;;;;;;3.90;2.40;;;11.70;99.90;;;;;;7338205;32;20195;-60
2022/07/02 00:33:13;;;;;;;6.85;2.45;;;11.80;99.90;;;;;;7342389;32;20131;-60
2022/07/02 00:37:15;;;;;;;4.18;2.58;;;11.70;99.90;;;;;;7357512;32;20202;-60
2022/07/02 00:41:18;;;;;;;3.97;1.92;;;11.60;99.90;;;;;;7340927;32;20191;-59
2022/07/02 00:45:20;;;;;;;5.32;2.45;;;11.60;99.90;;;;;;7341194;32;20150;-59
2022/07/02 00:49:22;;;;;;;4.47;2.12;;;11.50;99.90;;;;;;7343909;32;20110;-59
2022/07/02 00:53:24;;;;;;;5.18;2.10;;;11.50;99.90;;;;;;7339614;32;20213;-59
2022/07/02 00:57:26;;;;;;;3.90;2.83;;;11.40;99.90;;;;;;7337039;32;20791;-59
2022/07/02 01:01:28;;;;;;;6.20;2.62;;;11.40;99.90;;;;;;7339942;32;20187;-59
2022/07/02 01:05:30;;;;;;;5.55;2.35;;;11.40;99.90;;;;;;7339646;32;20122;-58
2022/07/02 01:13:58;;;;;;;4.95;2.80;;;11.30;99.90;;;;;;7337683;32;21411;-58
2022/07/02 01:18:02;;;;;;;10.68;2.72;;;11.30;99.90;;;;;;7337144;32;20127;-59
2022/07/02 01:22:25;;;;;;;8.02;2.30;;;11.30;99.90;;;;;;7343787;32;20253;-59
2022/07/02 01:26:26;;;;;;;3.35;2.10;;;11.20;99.90;;;;;;7343790;32;20123;-59
2022/07/02 01:30:29;;;;;;;7.30;3.05;;;11.20;99.90;;;;;;7344474;32;20115;-59
2022/07/02 01:34:45;;;;;;;2.97;2.42;;;11.20;99.90;;;;;;7343958;32;20111;-59
2022/07/02 01:38:48;;;;;;;7.68;2.40;;;11.20;99.90;;;;;;7339538;32;20303;-59
2022/07/02 01:42:50;;;;;;;6.65;2.62;;;11.10;99.90;;;;;;7341080;32;20711;-59
2022/07/02 01:46:52;;;;;;;7.97;2.55;;;11.10;99.90;;;;;;7338969;32;20842;-60
2022/07/02 01:50:53;;;;;;;7.47;3.10;;;11.10;99.90;;;;;;7338158;32;20728;-59
2022/07/02 01:54:55;;;;;;;8.05;2.85;;;11.10;99.90;;;;;;7333506;32;20111;-60
2022/07/02 01:58:57;;;;;;;6.53;2.80;;;11.00;99.90;;;;;;7342393;32;20119;-59
2022/07/02 02:02:59;;;;;;;5.62;2.80;;;11.00;99.90;;;;;;7343347;32;20155;-59
2022/07/02 02:07:02;;;;;;;7.30;3.05;;;11.10;99.90;;;;;;7339726;32;20522;-59
2022/07/02 02:11:04;;;;;;;6.72;2.92;;;10.90;99.90;;;;;;7340451;32;20392;-59
2022/07/02 02:15:06;;;;;;;5.53;2.92;;;10.90;99.90;;;;;;7341760;32;20171;-59
2022/07/02 02:19:08;;;;;;;7.43;3.10;;;10.90;99.90;;;;;;7337836;32;20122;-59
2022/07/02 02:23:10;;;;;;;6.10;3.05;;;10.90;99.90;;;;;;7340982;32;20163;-59
2022/07/02 02:27:11;;;;;;;6.12;3.47;;;10.90;99.90;;;;;;7343467;32;20216;-59
2022/07/02 02:31:13;;;;;;;7.68;3.20;;;10.80;99.90;;;;;;7340249;32;20568;-59
2022/07/02 02:35:15;;;;;;;8.75;3.62;;;10.90;99.90;;;;;;7343114;32;20238;-59
2022/07/02 02:39:17;;;;;;;6.97;3.00;;;10.80;99.90;;;;;;7344672;32;20207;-59
2022/07/02 02:43:19;;;;;;;3.95;3.10;;;10.80;99.90;;;;;;7342128;32;20132;-60
2022/07/02 02:47:22;;;;;;;8.63;3.10;;;10.80;99.90;;;;;;7342557;32;20565;-59
2022/07/02 02:51:24;;;;;;;4.37;2.95;;;10.70;99.90;;;;;;7339920;32;20627;-59
2022/07/02 02:55:26;;;;;;;8.75;3.53;;;10.70;99.90;;;;;;7333304;32;20130;-59
2022/07/02 02:59:27;;;;;;;5.68;3.00;;;10.70;99.90;;;;;;7341529;32;20261;-59
2022/07/02 03:03:29;;;;;;;10.60;3.30;;;10.60;99.90;;;;;;7344750;32;20135;-59
2022/07/02 03:07:31;;;;;;;8.35;3.03;;;10.60;99.90;;;;;;7345125;32;20216;-59
2022/07/02 03:11:33;;;;;;;7.18;3.45;;;10.50;99.90;;;;;;7343519;32;20214;-59
2022/07/02 03:15:35;;;;;;;6.95;2.70;;;10.50;99.90;;;;;;7342854;32;20301;-60
2022/07/02 03:19:37;;;;;;;7.15;2.75;;;10.50;99.90;;;;;;7344232;32;20702;-60
2022/07/02 03:23:39;;;;;;;6.90;2.75;;;10.50;99.90;;;;;;7343440;32;20135;-60
2022/07/02 03:27:55;;;;;;;9.55;3.30;;;10.50;99.90;;;;;;7343092;32;20234;-61
2022/07/02 03:31:56;;;;;;;5.47;3.30;;;10.40;99.90;;;;;;7341415;32;20586;-60
2022/07/02 03:35:58;;;;;;;5.32;2.83;;;10.40;99.90;;;;;;7344108;32;20129;-60
2022/07/02 03:40:00;;;;;;;10.35;2.97;;;10.30;99.90;;;;;;7336670;32;20127;-59
2022/07/02 03:44:02;;;;;;;4.75;2.95;;;10.30;99.90;;;;;;7342932;32;20115;-60
2022/07/02 03:48:04;;;;;;;5.55;3.05;;;10.30;99.90;;;;;;7342349;32;20542;-60
2022/07/02 03:52:06;;;;;;;4.65;2.87;;;10.40;99.90;;;;;;7347159;32;20163;-60
2022/07/02 03:56:08;;;;;;;7.15;3.20;;;10.40;99.90;;;;;;7342763;32;20111;-60
2022/07/02 04:00:10;;;;;;;5.55;3.22;;;10.40;99.90;;;;;;7343154;32;20127;-61
2022/07/02 04:04:12;;;;;;;7.65;3.53;;;10.40;99.90;;;;;;7344500;32;20160;-60
2022/07/02 04:08:14;;;;;;;5.00;3.00;;;10.50;99.90;;;;;;7344882;32;20343;-60
2022/07/02 04:12:16;;;;;;;8.13;3.15;;;10.60;99.90;;;;;;7344621;32;20107;-60
2022/07/02 04:16:17;;;;;;;6.12;3.70;;;10.70;99.90;;;;;;7346395;32;20168;-60
2022/07/02 04:20:19;;;;;;;8.48;3.20;;;10.80;99.90;;;;;;7343467;32;20295;-60
2022/07/02 04:24:21;;;;;;;8.50;3.33;;;10.90;99.90;;;;;;7337978;32;20119;-60
2022/07/02 04:28:24;;;;;;;5.75;3.62;;;11.10;99.90;;;;;;7339557;32;20358;-60
2022/07/02 04:32:25;;;;;;;5.55;2.75;;;11.30;99.90;;;;;;7337938;32;20229;-60
2022/07/02 04:36:27;;;;;;;7.60;2.70;;;11.60;99.90;;;;;;7343042;32;20129;-59
2022/07/02 04:40:29;;;;;;;7.62;2.30;;;12.00;99.90;;;;;;7339202;32;20134;-60
2022/07/02 04:44:30;;;;;;;3.72;1.80;;;12.40;99.90;;;;;;7343494;32;20123;-60
2022/07/02 04:48:32;;;;;;;8.38;2.75;;;12.80;99.90;;;;;;7342937;32;20210;-60
2022/07/02 04:52:34;;;;;;;4.03;1.48;;;13.20;99.90;;;;;;7341959;32;20189;-60
2022/07/02 04:56:36;;;;;;;7.32;1.92;;;13.60;99.90;;;;;;7334827;32;20339;-60
2022/07/02 05:00:39;;;;;;;2.25;1.42;;;14.10;99.90;;;;;;7345969;32;20131;-60
2022/07/02 05:04:40;;;;;;;2.40;1.15;;;14.40;99.90;;;;;;7343732;32;20573;-60
2022/07/02 05:08:43;;;;;;;5.55;1.70;;;14.90;99.90;;;;;;7340877;32;20182;-59
2022/07/02 05:12:45;;;;;;;5.10;1.20;;;15.50;99.90;;;;;;7341670;32;20303;-60
2022/07/02 05:16:46;;;;;;;6.03;1.15;;;16.00;99.90;;;;;;7344062;32;20175;-60
2022/07/02 05:20:48;;;;;;;5.20;1.48;;;16.80;99.90;;;;;;7339926;32;20599;-60
2022/07/02 05:24:50;;;;;;;3.08;1.20;;;16.90;99.90;;;;;;7345187;32;20207;-60
2022/07/02 05:28:52;;;;;;;2.50;0.98;;;17.70;99.90;;;;;;7344163;32;20572;-60
2022/07/02 05:32:53;;;;;;;2.85;1.00;;;17.90;99.90;;;;;;7343144;32;20847;-60
2022/07/02 05:36:55;;;;;;;2.97;1.00;;;18.00;99.90;;;;;;7346164;32;20611;-61
2022/07/02 05:40:57;;;;;;;4.47;1.15;;;18.50;99.90;;;;;;7339867;32;20130;-60
2022/07/02 05:44:59;;;;;;;3.33;0.80;;;18.70;99.90;;;;;;7341308;32;20123;-59
2022/07/02 05:49:01;;;;;;;2.30;0.90;;;19.10;99.90;;;;;;7345172;32;20609;-60
2022/07/02 05:53:02;;;;;;;2.80;0.98;;;19.40;99.90;;;;;;7341804;32;20168;-60
2022/07/02 05:57:05;;;;;;;2.50;1.10;;;20.00;99.90;;;;;;7338861;32;20179;-60
2022/07/02 06:01:07;;;;;;;2.67;0.90;;;20.30;99.90;;;;;;7342512;32;20115;-60
2022/07/02 06:09:29;;;;;;;2.37;1.23;;;20.30;99.90;;;;;;7339024;32;20769;-61
2022/07/02 06:13:31;;;;;;;2.15;0.90;;;19.40;99.90;;;;;;7348994;32;20167;-60
2022/07/02 06:17:32;;;;;;;3.33;1.10;;;18.80;99.90;;;;;;7346524;32;20206;-61
2022/07/02 06:21:35;;;;;;;1.73;1.15;;;18.50;99.90;;;;;;7348565;32;20107;-63
2022/07/02 06:25:36;;;;;;;5.62;1.25;;;18.20;99.90;;;;;;7347345;32;20154;-61
2022/07/02 06:29:38;;;;;;;4.80;1.33;;;18.00;99.90;;;;;;7347134;32;20269;-61
2022/07/02 06:33:41;;;;;;;5.15;1.50;;;18.00;99.90;;;;;;7344207;32;20179;-60
2022/07/02 06:37:42;;;;;;;4.47;1.20;;;18.10;99.90;;;;;;7343462;32;20134;-63
2022/07/02 06:46:05;;;;;;;5.47;1.05;;;18.10;99.90;;;;;;7341571;32;20312;-61
2022/07/02 06:50:08;;;;;;;2.87;1.10;;;18.20;99.90;;;;;;7343532;32;20194;-61
2022/07/02 06:54:09;;;;;;;1.92;0.90;;;18.30;99.90;;;;;;7344569;32;20635;-61
2022/07/02 06:58:11;;;;;;;4.55;1.00;;;18.50;99.90;;;;;;7344113;32;20139;-60
2022/07/02 07:02:13;;;;;;;3.85;0.80;;;18.50;99.90;;;;;;7345457;32;20122;-63
2022/07/02 07:06:15;;;;;;;8.25;1.37;;;18.70;99.90;;;;;;7347706;32;20194;-63
2022/07/02 07:10:16;;;;;;;5.87;1.10;;;18.80;99.90;;;;;;7350416;32;20115;-63
2022/07/02 07:14:19;;;;;;;3.22;0.95;;;18.80;99.90;;;;;;7351641;32;20130;-63
2022/07/02 07:18:21;;;;;;;4.95;1.10;;;18.80;99.90;;;;;;7350755;32;20118;-63
2022/07/02 07:22:23;;;;;;;4.07;1.23;;;19.00;99.90;;;;;;7346330;32;20187;-64
2022/07/02 07:26:25;;;;;;;4.12;1.10;;;19.00;99.90;;;;;;7343142;32;20355;-65
2022/07/02 07:30:27;;;;;;;4.97;1.00;;;19.20;99.90;;;;;;7346682;32;20219;-59
2022/07/02 07:34:28;;;;;;;2.87;0.80;;;19.20;99.90;;;;;;7340986;32;20191;-60
2022/07/02 07:38:30;;;;;;;2.87;0.88;;;19.30;99.90;;;;;;7341374;32;20662;-58
2022/07/02 07:42:32;;;;;;;2.80;0.90;;;19.40;99.90;;;;;;7345632;32;20124;-58
2022/07/02 07:46:34;;;;;;;4.87;0.82;;;19.50;99.90;;;;;;7337381;32;20206;-59
2022/07/02 07:50:36;;;;;;;2.53;0.57;;;19.60;99.90;;;;;;7339256;32;20134;-59
2022/07/02 07:54:38;;;;;;;3.45;0.70;;;19.70;99.90;;;;;;7343740;32;20122;-59
2022/07/02 07:58:40;;;;;;;2.92;0.80;;;20.00;99.90;;;;;;7338969;32;20117;-59
2022/07/02 08:02:42;;;;;;;4.45;0.70;;;20.00;99.90;;;;;;7339095;32;20111;-61
2022/07/02 08:06:44;;;;;;;1.58;0.50;;;20.10;99.90;;;;;;7341714;32;20235;-60
2022/07/02 08:10:46;;;;;;;4.43;0.75;;;20.40;99.90;;;;;;7340267;32;20304;-60
2022/07/02 08:14:48;;;;;;;2.37;0.68;;;20.50;99.90;;;;;;7345090;32;20245;-58
2022/07/02 08:18:49;;;;;;;3.95;0.70;;;20.70;99.90;;;;;;7343254;32;20115;-59
2022/07/02 08:22:51;;;;;;;2.65;0.60;;;20.90;99.90;;;;;;7342515;32;20638;-58
2022/07/02 08:26:53;;;;;;;2.92;0.70;;;21.20;99.90;;;;;;7338863;32;20653;-63
2022/07/02 08:30:55;;;;;;;2.03;0.55;;;21.40;99.90;;;;;;7343852;32;20275;-63
2022/07/02 08:34:57;;;;;;;2.72;0.68;;;21.60;99.90;;;;;;7337463;32;20531;-63
2022/07/02 08:38:58;;;;;;;2.10;0.52;;;21.90;99.90;;;;;;7342918;32;20115;-56
2022/07/02 08:43:02;;;;;;;2.08;0.50;;;22.30;99.90;;;;;;7348807;32;20230;-57
2022/07/02 08:47:08;;;;;;;1.42;0.37;;;22.40;99.90;;;;;;7337263;32;20292;-57
2022/07/02 08:51:13;;;;;;;2.75;0.60;;;22.70;99.90;;;;;;7339891;32;20174;-57
2022/07/02 08:55:16;;;;;;;2.90;0.50;;;22.90;99.90;;;;;;7329198;32;20139;-57
2022/07/02 08:59:18;;;;;;;3.53;0.60;;;22.90;99.90;;;;;;7338564;32;20115;-57
2022/07/02 09:03:21;;;;;;;1.20;0.40;;;23.20;99.50;;;;;;7350582;32;20102;-57
2022/07/02 09:07:23;;;;;;;1.95;0.57;;;23.60;96.80;;;;;;7341253;32;20195;-58
2022/07/02 09:11:28;;;;;;;2.87;0.50;;;23.80;98.60;;;;;;7342972;32;20187;-63
2022/07/02 09:15:31;;;;;;;1.35;0.50;;;24.20;96.60;;;;;;7343703;32;20763;-62
2022/07/02 09:19:34;;;;;;;4.87;0.68;;;24.70;97.30;;;;;;7341986;32;20333;-63
2022/07/02 09:23:48;;;;;;;2.05;0.47;;;24.90;95.40;;;;;;7345796;32;20318;-61
2022/07/02 09:27:58;;;;;;;5.25;0.62;;;25.30;92.60;;;;;;7341321;32;20263;-62
2022/07/02 09:32:01;;;;;;;5.85;0.70;;;25.00;84.80;;;;;;7342161;32;20115;-61
2022/07/02 09:36:11;;;;;;;4.12;0.45;;;25.00;89.40;;;;;;7339944;32;20121;-63
2022/07/02 09:40:14;;;;;;;1.55;0.40;;;25.50;84.00;;;;;;7335589;32;20241;-62
2022/07/02 09:44:15;;;;;;;2.80;0.50;;;25.80;85.40;;;;;;7337870;32;20291;-64
2022/07/02 09:48:17;;;;;;;2.20;0.37;;;25.60;80.30;;;;;;7341254;32;20398;-64
2022/07/02 09:52:19;;;;;;;2.45;0.50;;;25.10;75.20;;;;;;7345773;32;20123;-62
2022/07/02 09:56:23;;;;;;;1.87;0.55;;;24.80;77.50;;;;;;7340114;32;20686;-65
2022/07/02 10:00:28;;;;;;;2.75;0.75;;;24.50;78.10;;;;;;7340773;32;20249;-65
2022/07/02 10:04:32;;;;;;;2.30;0.40;;;24.90;84.70;;;;;;7343326;32;20186;-63
2022/07/02 10:08:35;;;;;;;3.90;0.60;;;25.40;78.70;;;;;;7337388;32;20170;-62
2022/07/02 10:12:38;;;;;;;2.28;0.50;;;25.50;74.20;;;;;;7342296;32;20131;-58
2022/07/02 10:16:41;;;;;;;1.50;0.30;;;25.30;76.60;;;;;;7342291;32;20194;-60
2022/07/02 10:20:43;;;;;;;1.02;0.30;;;25.00;75.90;;;;;;7334136;32;20126;-62
2022/07/02 10:24:46;;;;;;;2.45;0.62;;;24.90;74.80;;;;;;7345110;32;20210;-63
2022/07/02 10:28:49;;;;;;;2.90;0.43;;;25.30;74.70;;;;;;7340359;32;20601;-62
2022/07/02 10:33:20;;;;;;;1.83;0.40;;;25.40;74.50;;;;;;7339415;32;20192;-62
2022/07/02 10:37:22;;;;;;;1.85;0.30;;;25.80;71.90;;;;;;7340757;32;20230;-62
2022/07/02 10:41:25;;;;;;;1.55;0.30;;;26.50;76.80;;;;;;7337931;32;20332;-62
2022/07/02 10:45:27;;;;;;;2.55;0.45;;;26.20;66.30;;;;;;7340408;32;20245;-62
2022/07/02 10:49:29;;;;;;;3.42;0.60;;;25.60;66.00;;;;;;7340925;32;20540;-62
2022/07/02 10:54:17;;;;;;;1.45;0.43;;;25.90;69.60;;;;;;7338979;32;20124;-61
2022/07/02 10:58:20;;;;;;;5.78;0.55;;;26.40;75.00;;;;;;7350126;32;20175;-61
2022/07/02 11:02:33;;;;;;;5.37;0.37;;;26.70;69.20;;;;;;7343712;32;20699;-61
2022/07/02 11:06:35;;;;;;;2.78;0.60;;;26.20;68.90;;;;;;7344037;32;20245;-62
2022/07/02 11:10:48;;;;;;;2.90;0.40;;;26.60;72.60;;;;;;7343276;32;20208;-64
2022/07/02 11:14:54;;;;;;;3.58;0.30;;;26.60;66.60;;;;;;7346638;32;20150;-61
2022/07/02 11:19:24;;;;;;;2.78;0.40;;;26.70;70.70;;;;;;7342188;32;20705;-62
2022/07/02 11:23:27;;;;;;;4.78;0.47;;;27.10;71.20;;;;;;7344924;32;20550;-62
2022/07/02 11:27:29;;;;;;;1.37;0.50;;;27.10;67.30;;;;;;7338245;32;20674;-62
2022/07/02 11:31:35;;;;;;;1.55;0.40;;;26.90;64.50;;;;;;7339254;32;20139;-62
2022/07/02 11:35:37;;;;;;;;;;;27.10;70.40;;;;;;7334509;32;20115;-61
2022/07/02 11:39:39;;;;;;;1.73;0.40;;;27.00;66.00;;;;;;7346031;32;20066;-62
2022/07/02 11:43:44;;;;;;;2.75;0.47;;;27.10;68.60;;;;;;7342188;32;20336;-62
2022/07/02 11:47:50;;;;;;;1.48;0.30;;;26.70;66.00;;;;;;7341569;32;20210;-62
2022/07/02 11:52:06;;;;;;;2.60;0.40;;;26.70;68.60;;;;;;7341472;32;20224;-62
2022/07/02 11:56:18;;;;;;;4.60;0.50;;;26.60;73.80;;;;;;7344473;32;20178;-59
2022/07/02 12:00:19;;;;;;;4.68;0.60;;;26.10;70.20;;;;;;7338455;32;20111;-59
2022/07/02 12:04:22;;;;;;;3.20;0.50;;;25.60;72.80;;;;;;7331324;32;20133;-60
2022/07/02 12:08:25;;;;;;;2.00;0.60;;;25.80;77.80;;;;;;7344995;32;20107;-60
2022/07/02 12:12:27;;;;;;;1.92;0.50;;;26.30;73.10;;;;;;7341855;32;20250;-59
2022/07/02 12:16:29;;;;;;;3.00;0.37;;;26.50;68.00;;;;;;7333607;32;20111;-59
2022/07/02 12:20:31;;;;;;;3.00;0.43;;;26.50;68.10;;;;;;7332937;32;20157;-60
2022/07/02 12:24:35;;;;;;;1.25;0.37;;;26.40;69.70;;;;;;7341234;32;20919;-61
2022/07/02 12:32:57;;;;;;;4.10;0.75;;;26.40;67.50;;;;;;7338941;32;20576;-60
2022/07/02 12:37:00;;;;;;;1.60;0.50;;;26.60;69.70;;;;;;7342235;32;20198;-61
2022/07/02 12:41:01;;;;;;;1.10;0.30;;;26.50;67.80;;;;;;7340863;32;20114;-60
2022/07/02 12:45:07;;;;;;;1.85;0.40;;;26.10;65.60;;;;;;7339579;32;20123;-60
2022/07/02 12:49:17;;;;;;;1.42;0.40;;;26.00;67.00;;;;;;7337202;32;20122;-60
2022/07/02 12:53:20;;;;;;;3.40;0.60;;;25.90;66.30;;;;;;7343180;32;20095;-59
2022/07/02 12:57:24;;;;;;;2.00;0.50;;;26.10;70.00;;;;;;7337659;32;20159;-58
2022/07/02 13:01:26;;;;;;;2.55;0.60;;;26.00;66.20;;;;;;7336494;32;20235;-58
2022/07/02 13:05:28;;;;;;;3.03;0.50;;;25.80;67.20;;;;;;7339576;32;20139;-59
2022/07/02 13:09:30;;;;;;;1.65;0.40;;;25.50;69.40;;;;;;7336986;32;20188;-59
2022/07/02 13:13:32;;;;;;;2.03;0.47;;;25.60;71.20;;;;;;7337019;32;20310;-60
2022/07/02 13:17:38;;;;;;;2.90;0.45;;;25.70;70.00;;;;;;7339969;32;20210;-59
2022/07/02 13:21:41;;;;;;;2.50;0.40;;;26.20;69.70;;;;;;7343120;32;20153;-59
2022/07/02 13:25:43;;;;;;;1.58;0.40;;;26.80;66.80;;;;;;7340090;32;20176;-61
2022/07/02 13:29:45;;;;;;;1.58;0.43;;;27.00;65.80;;;;;;7344040;32;20099;-60
2022/07/02 13:33:46;;;;;;;2.12;0.50;;;27.50;61.60;;;;;;7340705;32;20255;-62
2022/07/02 13:37:48;;;;;;;2.37;0.47;;;27.30;61.20;;;;;;7338922;32;20570;-69
2022/07/02 13:41:52;;;;;;;2.97;0.50;;;27.80;61.00;;;;;;7344200;32;20198;-59
2022/07/02 13:45:53;;;;;;;5.12;0.32;;;28.00;59.90;;;;;;7347593;32;20132;-58
2022/07/02 13:49:55;;;;;;;1.48;0.40;;;28.30;60.60;;;;;;7339590;32;20177;-65
2022/07/02 13:53:57;;;;;;;2.47;0.40;;;29.00;60.20;;;;;;7345016;32;20214;-67
2022/07/02 13:57:59;;;;;;;2.25;0.60;;;29.20;60.50;;;;;;7338038;32;20291;-68
2022/07/02 14:02:01;;;;;;;1.60;0.50;;;28.60;57.90;;;;;;7337508;32;20324;-68
2022/07/02 14:06:03;;;;;;;1.33;0.50;;;28.90;58.50;;;;;;7332643;32;20152;-67
2022/07/02 14:10:05;;;;;;;5.05;0.45;;;28.60;61.10;;;;;;7335066;32;20121;-68
2022/07/02 14:14:07;;;;;;;2.28;0.35;;;28.30;58.60;;;;;;7345557;32;20205;-69
2022/07/02 14:18:09;;;;;;;1.00;0.50;;;28.00;62.80;;;;;;7329032;32;20240;-68
2022/07/02 14:22:14;;;;;;;2.20;0.35;;;28.10;58.60;;;;;;7334403;32;20605;-68
2022/07/02 14:26:17;;;;;;;3.15;0.40;;;27.80;59.60;;;;;;7346059;32;20099;-69
2022/07/02 14:30:19;;;;;;;1.17;0.30;;;28.00;62.00;;;;;;7345568;32;20188;-68
2022/07/02 14:34:21;;;;;;;4.00;1.55;;;28.60;63.40;;;;;;7346330;32;20107;-68
2022/07/02 14:38:23;;;;;;;1.15;0.30;;;28.90;61.70;;;;;;7343298;32;20107;-68
2022/07/02 14:42:25;;;;;;;0.88;0.22;;;29.50;56.10;;;;;;7349291;32;20610;-65
2022/07/02 14:46:30;;;;;;;5.72;0.50;;;29.10;57.40;;;;;;7341564;32;20458;-65
2022/07/02 14:50:34;;;;;;;1.42;0.40;;;28.30;55.90;;;;;;7341923;32;20126;-66
2022/07/02 14:54:36;;;;;;;1.80;0.40;;;27.40;60.10;;;;;;7346876;32;20562;-67
2022/07/02 14:58:38;;;;;;;1.75;0.60;;;27.30;60.50;;;;;;7342936;32;20327;-66
2022/07/02 15:02:40;;;;;;;0.90;0.25;;;27.00;61.80;;;;;;7341913;32;20464;-66
2022/07/02 15:06:42;;;;;;;5.53;0.40;;;26.90;61.10;;;;;;7344859;32;20139;-67
2022/07/02 15:10:44;;;;;;;2.12;0.50;;;26.80;62.70;;;;;;7346371;32;20450;-65
2022/07/02 15:19:06;;;;;;;1.48;0.50;;;26.90;62.80;;;;;;7345526;32;20541;-65
2022/07/02 15:23:09;;;;;;;1.67;0.50;;;26.80;62.80;;;;;;7341923;32;20254;-60
2022/07/02 15:27:13;;;;;;;3.67;0.50;;;27.00;65.90;;;;;;7341388;32;20310;-60
2022/07/02 15:31:17;;;;;;;2.00;0.80;;;26.70;64.00;;;;;;7345413;32;20149;-59
2022/07/02 15:35:21;;;;;;;5.25;0.50;;;26.60;62.60;;;;;;7341782;32;20138;-59
2022/07/02 15:39:23;;;;;;;0.98;0.45;;;26.40;63.30;;;;;;7342019;32;20579;-60
2022/07/02 15:43:26;;;;;;;1.35;0.30;;;26.30;65.50;;;;;;7338068;32;20559;-58
2022/07/02 15:47:29;;;;;;;1.95;0.40;;;26.30;63.60;;;;;;7342792;32;20210;-64
2022/07/02 15:51:59;;;;;;;3.75;0.52;;;26.20;63.90;;;;;;7338184;32;20447;-63
2022/07/02 15:56:02;;;;;;;1.40;0.43;;;25.90;65.60;;;;;;7340071;32;20147;-63
2022/07/02 16:00:05;;;;;;;2.62;0.62;;;25.70;63.60;;;;;;7341335;32;20287;-67
2022/07/02 16:04:10;;;;;;;2.22;0.50;;;25.60;65.80;;;;;;7339656;32;20301;-66
2022/07/02 16:08:13;;;;;;;3.33;0.50;;;25.60;63.60;;;;;;7342129;32;20125;-66
2022/07/02 16:12:16;;;;;;;3.10;0.70;;;25.70;64.70;;;;;;7347752;32;20175;-59
2022/07/02 16:16:18;;;;;;;1.77;0.55;;;25.70;66.60;;;;;;7345556;32;20244;-58
2022/07/02 16:20:21;;;;;;;2.08;0.50;;;25.70;67.10;;;;;;7341448;32;20183;-58
2022/07/02 16:24:23;;;;;;;3.62;1.20;;;25.70;66.70;;;;;;7343645;32;20178;-58
2022/07/02 16:28:25;;;;;;;0.68;0.32;;;25.70;65.40;;;;;;7343495;32;20179;-59
2022/07/02 16:32:35;;;;;;;1.83;0.50;;;25.50;67.70;;;;;;7341079;32;20229;-57
2022/07/02 16:36:38;;;;;;;1.98;0.55;;;25.40;66.90;;;;;;7337170;32;20787;-57
2022/07/02 16:40:42;;;;;;;1.25;0.50;;;25.30;66.50;;;;;;7343540;32;20123;-58
2022/07/02 16:44:44;;;;;;;2.80;0.60;;;25.30;68.50;;;;;;7343459;32;20500;-58
2022/07/02 16:48:47;;;;;;;1.90;0.50;;;25.20;68.90;;;;;;7342161;32;20195;-59
2022/07/02 16:53:02;;;;;;;4.40;0.60;;;25.10;68.90;;;;;;7337008;32;20135;-67
2022/07/02 16:57:04;;;;;;;3.17;1.80;;;25.00;69.40;;;;;;7341408;32;20129;-67
2022/07/02 17:01:06;;;;;;;2.85;1.35;;;25.10;69.40;;;;;;7342623;32;20183;-65
2022/07/02 17:05:09;;;;;;;6.72;2.05;;;25.20;68.70;;;;;;7342151;32;20214;-68
2022/07/02 17:09:11;;;;;;;3.40;0.62;;;25.20;68.10;;;;;;7346093;32;20750;-66
2022/07/02 17:13:13;;;;;;;2.75;0.70;;;25.10;67.60;;;;;;7338386;32;20266;-67
2022/07/02 17:17:15;;;;;;;5.20;0.88;;;24.90;71.30;;;;;;7346832;32;20139;-67
2022/07/02 17:21:17;;;;;;;1.67;0.65;;;24.80;71.00;;;;;;7334646;32;20171;-66
2022/07/02 17:25:19;;;;;;;2.62;0.60;;;24.70;70.80;;;;;;7342741;32;20103;-67
2022/07/02 17:29:22;;;;;;;0.90;0.47;;;24.60;71.80;;;;;;7340800;32;20103;-66
2022/07/02 17:33:24;;;;;;;1.37;0.57;;;24.30;74.90;;;;;;7342637;32;20583;-64
2022/07/02 17:37:26;;;;;;;2.15;0.57;;;24.10;76.10;;;;;;7346683;32;20103;-64
2022/07/02 17:41:28;;;;;;;2.92;0.60;;;24.00;76.10;;;;;;7341049;32;20985;-63
2022/07/02 17:45:30;;;;;;;1.35;0.47;;;23.80;79.90;;;;;;7334072;32;20107;-64
2022/07/02 17:49:31;;;;;;;1.83;0.52;;;23.80;76.90;;;;;;7343289;32;20154;-65
2022/07/02 17:53:33;;;;;;;1.45;0.57;;;23.80;83.10;;;;;;7340944;32;20144;-67
2022/07/02 17:57:35;;;;;;;7.37;0.75;;;23.60;85.80;;;;;;7342104;32;20127;-67
2022/07/02 18:01:37;;;;;;;2.83;0.70;;;23.50;90.40;;;;;;7344845;32;20124;-67
2022/07/02 18:05:39;;;;;;;6.93;2.37;;;23.40;91.80;;;;;;7337737;32;20103;-68
2022/07/02 18:09:41;;;;;;;5.78;3.47;;;23.40;92.20;;;;;;7337675;32;20176;-65
2022/07/02 18:13:43;;;;;;;4.35;1.50;;;23.40;92.90;;;;;;7345277;32;20142;-64
2022/07/02 18:17:45;;;;;;;3.62;0.90;;;23.30;94.30;;;;;;7346043;32;20146;-65
2022/07/02 18:21:47;;;;;;;2.50;0.70;;;23.30;96.60;;;;;;7343328;32;20163;-65
2022/07/02 18:25:49;;;;;;;4.90;0.70;;;23.20;97.50;;;;;;7345079;32;20118;-67
2022/07/02 18:29:52;;;;;;;3.47;0.68;;;23.20;98.00;;;;;;7341669;32;20605;-66
2022/07/02 18:33:54;;;;;;;2.78;1.10;;;23.10;98.60;;;;;;7346480;32;20127;-66
2022/07/02 18:37:56;;;;;;;5.25;2.20;;;23.00;99.30;;;;;;7347011;32;20607;-67
2022/07/02 18:41:57;;;;;;;4.62;0.98;;;23.00;99.90;;;;;;7340579;32;20616;-67
2022/07/02 18:45:59;;;;;;;4.90;1.20;;;23.00;99.90;;;;;;7347235;32;20253;-65
2022/07/02 18:50:04;;;;;;;3.85;1.10;;;23.00;99.90;;;;;;7342163;32;20092;-65
2022/07/02 18:54:06;;;;;;;5.78;1.02;;;23.10;99.90;;;;;;7348733;32;20183;-66
2022/07/02 18:58:09;;;;;;;3.92;1.00;;;22.80;99.90;;;;;;7342581;32;20271;-66
2022/07/02 19:02:11;;;;;;;2.95;0.68;;;22.70;99.90;;;;;;7346943;32;20122;-66
2022/07/02 19:06:18;;;;;;;2.37;0.70;;;22.60;99.90;;;;;;7347225;32;20553;-66
2022/07/02 19:10:20;;;;;;;2.12;1.10;;;22.60;99.90;;;;;;7348306;32;20550;-65
2022/07/02 19:14:23;;;;;;;23.35;21.08;;;22.60;99.90;;;;;;7347688;32;20178;-65
2022/07/02 19:18:24;;;;;;;6.15;2.78;;;22.60;99.90;;;;;;7344173;32;20095;-67
2022/07/02 19:22:26;;;;;;;5.47;1.20;;;22.30;99.90;;;;;;7339437;32;20606;-65
2022/07/02 19:30:49;;;;;;;2.62;0.62;;;22.10;99.90;;;;;;7343452;32;20240;-64
2022/07/02 19:34:51;;;;;;;2.55;0.88;;;22.00;99.90;;;;;;7345669;32;20194;-67
2022/07/02 19:38:52;;;;;;;3.30;1.30;;;22.00;99.90;;;;;;7345558;32;20103;-66
2022/07/02 19:42:55;;;;;;;1.80;0.70;;;21.80;99.90;;;;;;7344071;32;20135;-66
2022/07/02 19:46:56;;;;;;;1.50;0.90;;;21.70;99.90;;;;;;7336061;32;20111;-67
2022/07/02 19:50:58;;;;;;;3.72;0.70;;;21.60;99.90;;;;;;7344424;32;20213;-68
2022/07/02 19:55:00;;;;;;;1.37;0.57;;;21.60;99.90;;;;;;7341087;32;20091;-66
2022/07/02 19:59:02;;;;;;;1.33;0.52;;;21.40;99.90;;;;;;7346723;32;20295;-68
2022/07/02 20:03:11;;;;;;;1.33;0.40;;;21.30;99.90;;;;;;7340569;32;20288;-65
2022/07/02 20:07:13;;;;;;;2.25;1.10;;;21.20;99.90;;;;;;7337009;32;20127;-62
2022/07/02 20:11:15;;;;;;;2.50;1.25;;;21.10;99.90;;;;;;7339330;32;20538;-63
2022/07/02 20:15:24;;;;;;;4.12;1.20;;;21.00;99.90;;;;;;7339668;32;20248;-63
2022/07/02 20:19:25;;;;;;;3.33;1.12;;;20.90;99.90;;;;;;7341684;32;20209;-63
2022/07/02 20:23:27;;;;;;;2.65;1.55;;;20.80;99.90;;;;;;7344136;32;20170;-63
2022/07/02 20:27:29;;;;;;;4.62;1.52;;;20.70;99.90;;;;;;7342660;32;20202;-61
2022/07/02 20:31:31;;;;;;;4.05;1.65;;;20.60;99.90;;;;;;7339900;32;20286;-63
2022/07/02 20:35:33;;;;;;;4.05;2.03;;;20.50;99.90;;;;;;7342818;32;20229;-62
2022/07/02 20:39:35;;;;;;;3.33;1.60;;;20.30;99.90;;;;;;7342450;32;20202;-63
2022/07/02 20:43:38;;;;;;;2.80;1.40;;;20.10;99.90;;;;;;7339809;32;20132;-63
2022/07/02 20:47:40;;;;;;;4.05;1.40;;;19.90;99.90;;;;;;7344669;32;20187;-63
2022/07/02 20:51:47;;;;;;;3.20;1.30;;;19.80;99.90;;;;;;7342489;32;20167;-63
2022/07/02 20:55:50;;;;;;;7.82;2.37;;;19.70;99.90;;;;;;7343234;32;20335;-63
2022/07/02 20:59:52;;;;;;;5.70;3.22;;;19.40;99.90;;;;;;7345754;32;20530;-63
2022/07/02 21:03:54;;;;;;;10.55;3.97;;;19.20;99.90;;;;;;7338997;32;20134;-63
2022/07/02 21:07:56;;;;;;;9.85;6.05;;;19.00;99.90;;;;;;7344852;32;20279;-62
2022/07/02 21:11:58;;;;;;;7.78;5.30;;;18.80;99.90;;;;;;7344796;32;20514;-62
2022/07/02 21:16:02;;;;;;;14.65;11.65;;;18.60;99.90;;;;;;7341873;32;20266;-63
2022/07/02 21:20:04;;;;;;;6.82;5.35;;;18.40;99.90;;;;;;7343341;32;20126;-63
2022/07/02 21:24:06;;;;;;;6.78;4.68;;;18.20;99.90;;;;;;7340719;32;20367;-63
2022/07/02 21:28:08;;;;;;;7.00;3.92;;;18.10;99.90;;;;;;7337168;32;20139;-62
2022/07/02 21:32:10;;;;;;;6.45;4.70;;;17.90;99.90;;;;;;7337007;32;20621;-60